Time;durP1;ratioP1;P1;durP2;ratioP2;P2;SDS_P1;SDS_P2;PMS_P1;PMS_P2;Temp;Humidity;BMP_temperature;BMP_pressure;BME280_temperature;BME280_humidity;BME280_pressure;Samples;Min_cycle;Max_cycle;Signal;HPM_P1;HPM_P2
2022/06/29 00:00:17;;;;;;;;;;;27.20;53.70;;;;;;2100620;28;852;-76
2022/06/29 00:01:17;;;;;;;;;;;27.20;53.70;;;;;;2101043;28;888;-76
2022/06/29 00:02:19;;;;;;;;;;;27.20;53.70;;;;;;2100927;28;1028;-76
2022/06/29 00:03:19;;;;;;;;;;;27.20;53.70;;;;;;2101077;28;999;-76
2022/06/29 00:04:19;;;;;;;;;;;27.20;53.70;;;;;;2100320;28;1394;-76
2022/06/29 00:05:21;;;;;;;;;;;27.20;53.70;;;;;;2092079;28;1395;-77
2022/06/29 00:06:21;;;;;;;;;;;27.20;53.80;;;;;;2100508;28;916;-76
2022/06/29 00:07:21;;;;;;;;;;;27.20;53.80;;;;;;2101014;28;983;-76
2022/06/29 00:08:22;;;;;;;;;;;27.20;53.70;;;;;;2101031;28;1286;-77
2022/06/29 00:09:22;;;;;;;;;;;27.20;53.70;;;;;;2100043;28;1901;-77
2022/06/29 00:10:23;;;;;;;;;;;27.20;53.80;;;;;;2091979;28;1404;-77
2022/06/29 00:11:23;;;;;;;;;;;27.20;53.70;;;;;;2100329;28;1238;-77
2022/06/29 00:12:23;;;;;;;;;;;27.20;53.70;;;;;;2091988;28;1280;-77
2022/06/29 00:13:24;;;;;;;;;;;27.20;53.70;;;;;;2100266;28;1222;-76
2022/06/29 00:14:24;;;;;;;;;;;27.20;53.70;;;;;;2100363;28;1189;-76
2022/06/29 00:15:24;;;;;;;;;;;27.20;53.80;;;;;;2101211;28;830;-76
2022/06/29 00:16:25;;;;;;;;;;;27.20;53.70;;;;;;2100841;28;905;-77
2022/06/29 00:17:25;;;;;;;;;;;27.20;53.70;;;;;;2101008;28;833;-76
2022/06/29 00:18:26;;;;;;;;;;;27.20;53.70;;;;;;2100194;28;1391;-76
2022/06/29 00:19:26;;;;;;;;;;;27.20;53.70;;;;;;2100282;28;850;-77
2022/06/29 00:20:27;;;;;;;;;;;27.20;53.70;;;;;;2100161;28;1256;-77
2022/06/29 00:21:27;;;;;;;;;;;27.20;53.70;;;;;;2091905;28;1433;-77
2022/06/29 00:22:27;;;;;;;;;;;27.20;53.70;;;;;;2100357;28;952;-76
2022/06/29 00:23:28;;;;;;;;;;;27.20;53.60;;;;;;2100142;28;1276;-77
2022/06/29 00:24:29;;;;;;;;;;;27.20;53.70;;;;;;2100259;28;1352;-77
2022/06/29 00:25:29;;;;;;;;;;;27.20;53.60;;;;;;2108673;28;888;-77
2022/06/29 00:26:29;;;;;;;;;;;27.20;53.70;;;;;;2100137;28;1320;-76
2022/06/29 00:27:30;;;;;;;;;;;27.20;53.60;;;;;;2091760;28;1207;-77
2022/06/29 00:28:30;;;;;;;;;;;27.20;53.60;;;;;;2100303;28;861;-76
2022/06/29 00:29:30;;;;;;;;;;;27.20;53.60;;;;;;2100381;28;1906;-76
2022/06/29 00:30:31;;;;;;;;;;;27.20;53.60;;;;;;2100077;28;1040;-76
2022/06/29 00:31:31;;;;;;;;;;;27.20;53.60;;;;;;2100723;28;821;-76
2022/06/29 00:32:32;;;;;;;;;;;27.20;53.60;;;;;;2100699;28;901;-77
2022/06/29 00:33:32;;;;;;;;;;;27.20;53.50;;;;;;2100731;28;805;-77
2022/06/29 00:34:32;;;;;;;;;;;27.20;53.50;;;;;;2100036;28;1532;-76
2022/06/29 00:35:33;;;;;;;;;;;27.20;53.60;;;;;;2100103;28;1028;-77
2022/06/29 00:36:33;;;;;;;;;;;27.20;53.60;;;;;;2100796;28;910;-76
2022/06/29 00:37:34;;;;;;;;;;;27.20;53.50;;;;;;2099999;28;1241;-76
2022/06/29 00:38:34;;;;;;;;;;;27.20;53.50;;;;;;2100141;28;822;-77
2022/06/29 00:39:34;;;;;;;;;;;27.20;53.50;;;;;;2100800;28;1000;-76
2022/06/29 00:40:35;;;;;;;;;;;27.20;53.50;;;;;;2100818;28;1034;-76
2022/06/29 00:41:35;;;;;;;;;;;27.20;53.50;;;;;;2100789;28;847;-76
2022/06/29 00:42:36;;;;;;;;;;;27.20;53.50;;;;;;2099976;28;1398;-76
2022/06/29 00:43:36;;;;;;;;;;;27.20;53.50;;;;;;2091776;28;1385;-76
2022/06/29 00:44:37;;;;;;;;;;;27.20;53.50;;;;;;2100038;28;1169;-76
2022/06/29 00:45:37;;;;;;;;;;;27.20;53.50;;;;;;2100708;28;880;-76
2022/06/29 00:46:37;;;;;;;;;;;27.20;53.40;;;;;;2100846;28;1059;-77
2022/06/29 00:47:38;;;;;;;;;;;27.20;53.40;;;;;;2100060;28;1418;-76
2022/06/29 00:48:38;;;;;;;;;;;27.20;53.50;;;;;;2100341;28;814;-77
2022/06/29 00:49:38;;;;;;;;;;;27.20;53.40;;;;;;2101439;28;1961;-77
2022/06/29 00:50:39;;;;;;;;;;;27.20;53.40;;;;;;2100380;28;1266;-76
2022/06/29 00:51:39;;;;;;;;;;;27.20;53.40;;;;;;2099995;28;1106;-76
2022/06/29 00:52:40;;;;;;;;;;;27.20;53.40;;;;;;2100631;28;873;-76
2022/06/29 00:53:40;;;;;;;;;;;27.20;53.40;;;;;;2100160;28;1247;-76
2022/06/29 00:54:40;;;;;;;;;;;27.20;53.40;;;;;;2092082;28;1197;-77
2022/06/29 00:55:41;;;;;;;;;;;27.20;53.40;;;;;;2100629;28;1366;-76
2022/06/29 00:56:41;;;;;;;;;;;27.20;53.40;;;;;;2105505;28;953;-77
2022/06/29 00:57:44;;;;;;;;;;;27.20;53.40;;;;;;2107445;28;1082;-77
2022/06/29 00:58:45;;;;;;;;;;;27.20;53.40;;;;;;2099839;28;1377;-76
2022/06/29 00:59:46;;;;;;;;;;;27.20;53.40;;;;;;2100133;28;933;-76
2022/06/29 01:00:46;;;;;;;;;;;27.20;53.40;;;;;;2100638;28;813;-76
2022/06/29 01:01:46;;;;;;;;;;;27.20;53.40;;;;;;2100488;28;849;-76
2022/06/29 01:02:47;;;;;;;;;;;27.20;53.40;;;;;;2099924;28;1274;-76
2022/06/29 01:03:47;;;;;;;;;;;27.20;53.40;;;;;;2100069;28;849;-76
2022/06/29 01:04:48;;;;;;;;;;;27.20;53.30;;;;;;2099706;28;1233;-76
2022/06/29 01:05:48;;;;;;;;;;;27.20;53.30;;;;;;2091547;28;1414;-76
2022/06/29 01:06:48;;;;;;;;;;;27.20;53.30;;;;;;2100065;28;785;-76
2022/06/29 01:07:49;;;;;;;;;;;27.20;53.30;;;;;;2100540;28;903;-76
2022/06/29 01:08:49;;;;;;;;;;;27.20;53.30;;;;;;2099879;28;1252;-76
2022/06/29 01:09:49;;;;;;;;;;;27.20;53.30;;;;;;2099732;28;1957;-76
2022/06/29 01:10:50;;;;;;;;;;;27.20;53.30;;;;;;2100479;28;825;-76
2022/06/29 01:11:50;;;;;;;;;;;27.20;53.30;;;;;;2100451;28;928;-77
2022/06/29 01:12:53;;;;;;;;;;;27.20;53.30;;;;;;2099822;28;1393;-76
2022/06/29 01:13:54;;;;;;;;;;;27.20;53.30;;;;;;2099827;28;900;-76
2022/06/29 01:14:54;;;;;;;;;;;27.20;53.30;;;;;;2099812;28;1347;-76
2022/06/29 01:15:54;;;;;;;;;;;27.20;53.30;;;;;;2099931;28;793;-76
2022/06/29 01:16:55;;;;;;;;;;;27.20;53.20;;;;;;2100417;28;920;-76
2022/06/29 01:17:56;;;;;;;;;;;27.20;53.20;;;;;;2100686;28;809;-76
2022/06/29 01:18:56;;;;;;;;;;;27.20;53.20;;;;;;2099760;28;1254;-76
2022/06/29 01:19:56;;;;;;;;;;;27.20;53.20;;;;;;2099925;28;936;-77
2022/06/29 01:20:57;;;;;;;;;;;27.20;53.20;;;;;;2100459;28;825;-76
2022/06/29 01:21:58;;;;;;;;;;;27.20;53.20;;;;;;2100496;28;840;-76
2022/06/29 01:22:59;;;;;;;;;;;27.20;53.30;;;;;;2100284;28;955;-76
2022/06/29 01:23:59;;;;;;;;;;;27.20;53.20;;;;;;2100392;28;1016;-76
2022/06/29 01:25:00;;;;;;;;;;;27.20;53.20;;;;;;2100336;28;1255;-76
2022/06/29 01:26:00;;;;;;;;;;;27.20;53.20;;;;;;2099674;28;1229;-77
2022/06/29 01:27:00;;;;;;;;;;;27.20;53.20;;;;;;2099803;28;831;-77
2022/06/29 01:28:01;;;;;;;;;;;27.20;53.20;;;;;;2100420;28;881;-76
2022/06/29 01:29:01;;;;;;;;;;;27.20;53.20;;;;;;2099628;28;1225;-77
2022/06/29 01:30:01;;;;;;;;;;;27.20;53.20;;;;;;2091089;28;1922;-76
2022/06/29 01:31:02;;;;;;;;;;;27.20;53.20;;;;;;2099843;28;916;-76
2022/06/29 01:32:02;;;;;;;;;;;27.20;53.20;;;;;;2100302;28;865;-76
2022/06/29 01:33:03;;;;;;;;;;;27.20;53.30;;;;;;2099489;28;1265;-76
2022/06/29 01:34:03;;;;;;;;;;;27.20;53.20;;;;;;2099707;28;814;-76
2022/06/29 01:35:03;;;;;;;;;;;27.20;53.20;;;;;;2099474;28;1184;-76
2022/06/29 01:36:04;;;;;;;;;;;27.20;53.20;;;;;;2099665;28;924;-77
2022/06/29 01:37:04;;;;;;;;;;;27.20;53.20;;;;;;2099486;28;1344;-76
2022/06/29 01:38:04;;;;;;;;;;;27.20;53.20;;;;;;2099783;28;859;-76
2022/06/29 01:39:05;;;;;;;;;;;27.20;53.20;;;;;;2100344;28;943;-76
2022/06/29 01:40:05;;;;;;;;;;;27.20;53.20;;;;;;2099470;28;1365;-77
2022/06/29 01:41:06;;;;;;;;;;;27.20;53.20;;;;;;2099590;28;908;-77
2022/06/29 01:42:07;;;;;;;;;;;27.20;53.20;;;;;;2099546;28;1268;-76
2022/06/29 01:43:07;;;;;;;;;;;27.20;53.20;;;;;;2099561;28;901;-77
2022/06/29 01:44:07;;;;;;;;;;;27.20;53.10;;;;;;2099512;28;1245;-76
2022/06/29 01:45:08;;;;;;;;;;;27.20;53.10;;;;;;2099535;28;1189;-76
2022/06/29 01:46:08;;;;;;;;;;;27.20;53.20;;;;;;2099410;28;1276;-76
2022/06/29 01:47:08;;;;;;;;;;;27.10;53.20;;;;;;2099643;28;1279;-76
2022/06/29 01:48:09;;;;;;;;;;;27.20;53.20;;;;;;2099445;28;1237;-77
2022/06/29 01:49:09;;;;;;;;;;;27.20;53.20;;;;;;2091288;28;1262;-77
2022/06/29 01:50:10;;;;;;;;;;;27.20;53.20;;;;;;2099495;28;1955;-76
2022/06/29 01:51:10;;;;;;;;;;;27.20;53.20;;;;;;2099498;28;1362;-76
2022/06/29 01:52:10;;;;;;;;;;;27.20;53.20;;;;;;2099638;28;1257;-77
2022/06/29 01:53:11;;;;;;;;;;;27.20;53.20;;;;;;2107864;28;1227;-76
2022/06/29 01:54:11;;;;;;;;;;;27.10;53.10;;;;;;2099645;28;878;-77
2022/06/29 01:55:11;;;;;;;;;;;27.20;53.20;;;;;;2100116;28;1241;-77
2022/06/29 01:56:12;;;;;;;;;;;27.20;53.10;;;;;;2100031;28;1060;-77
2022/06/29 01:57:12;;;;;;;;;;;27.10;53.10;;;;;;2099466;28;1272;-77
2022/06/29 01:58:12;;;;;;;;;;;27.10;53.10;;;;;;2099608;28;1101;-77
2022/06/29 01:59:19;;;;;;;;;;;27.20;53.10;;;;;;2100238;28;988;-76
2022/06/29 02:00:19;;;;;;;;;;;27.10;53.20;;;;;;2100075;28;924;-76
2022/06/29 02:01:20;;;;;;;;;;;27.10;53.10;;;;;;2100083;28;910;-77
2022/06/29 02:02:21;;;;;;;;;;;27.20;53.10;;;;;;2100072;28;828;-77
2022/06/29 02:03:21;;;;;;;;;;;27.10;53.10;;;;;;2099574;28;1236;-77
2022/06/29 02:04:22;;;;;;;;;;;27.20;53.10;;;;;;2091167;28;1226;-76
2022/06/29 02:05:22;;;;;;;;;;;27.10;53.10;;;;;;2099577;28;882;-77
2022/06/29 02:06:23;;;;;;;;;;;27.10;53.10;;;;;;2099727;28;1165;-76
2022/06/29 02:07:23;;;;;;;;;;;27.20;53.10;;;;;;2099471;28;861;-76
2022/06/29 02:08:23;;;;;;;;;;;27.20;53.10;;;;;;2100098;28;856;-76
2022/06/29 02:09:24;;;;;;;;;;;27.10;53.10;;;;;;2099227;28;1965;-77
2022/06/29 02:10:24;;;;;;;;;;;27.20;53.10;;;;;;2091008;28;1397;-76
2022/06/29 02:11:25;;;;;;;;;;;27.20;53.10;;;;;;2099255;28;1265;-76
2022/06/29 02:12:25;;;;;;;;;;;27.20;53.10;;;;;;2091060;28;1254;-76
2022/06/29 02:13:26;;;;;;;;;;;27.20;53.10;;;;;;2099352;28;1290;-76
2022/06/29 02:14:26;;;;;;;;;;;27.20;53.10;;;;;;2091047;28;1433;-76
2022/06/29 02:15:26;;;;;;;;;;;27.10;53.10;;;;;;2099486;28;992;-77
2022/06/29 02:16:27;;;;;;;;;;;27.10;53.00;;;;;;2100294;28;877;-76
2022/06/29 02:17:28;;;;;;;;;;;27.20;53.00;;;;;;2100153;28;921;-77
2022/06/29 02:18:28;;;;;;;;;;;27.10;53.00;;;;;;2099229;28;1280;-76
2022/06/29 02:19:28;;;;;;;;;;;27.20;53.00;;;;;;2091017;28;1226;-76
2022/06/29 02:20:29;;;;;;;;;;;27.10;53.00;;;;;;2099275;28;921;-76
2022/06/29 02:21:29;;;;;;;;;;;27.20;53.00;;;;;;2099926;28;864;-76
2022/06/29 02:22:30;;;;;;;;;;;27.20;53.10;;;;;;2100014;28;932;-77
2022/06/29 02:23:30;;;;;;;;;;;27.20;53.00;;;;;;2099145;28;1330;-76
2022/06/29 02:24:31;;;;;;;;;;;27.20;53.00;;;;;;2099302;28;1244;-76
2022/06/29 02:25:31;;;;;;;;;;;27.10;53.00;;;;;;2099165;28;1444;-76
2022/06/29 02:26:31;;;;;;;;;;;27.10;53.00;;;;;;2099318;28;924;-76
2022/06/29 02:27:32;;;;;;;;;;;27.20;53.00;;;;;;2099084;28;1382;-76
2022/06/29 02:28:32;;;;;;;;;;;27.20;53.00;;;;;;2099395;28;889;-76
2022/06/29 02:29:32;;;;;;;;;;;27.20;53.00;;;;;;2099908;28;1960;-76
2022/06/29 02:34:46;;;;;;;;;;;27.20;53.00;;;;;;2099806;28;1261;-76
2022/06/29 02:35:46;;;;;;;;;;;27.10;53.00;;;;;;2099153;28;1298;-77
2022/06/29 02:36:47;;;;;;;;;;;27.20;53.00;;;;;;2099407;28;896;-76
2022/06/29 02:37:47;;;;;;;;;;;27.10;53.00;;;;;;2100063;28;881;-76
2022/06/29 02:38:47;;;;;;;;;;;27.10;53.00;;;;;;2099788;28;1064;-77
2022/06/29 02:39:48;;;;;;;;;;;27.20;53.00;;;;;;2099888;28;891;-76
2022/06/29 02:40:48;;;;;;;;;;;27.10;53.00;;;;;;2099277;28;1230;-77
2022/06/29 02:41:48;;;;;;;;;;;27.10;53.00;;;;;;2099299;28;1071;-77
2022/06/29 02:42:49;;;;;;;;;;;27.10;53.00;;;;;;2099955;28;873;-77
2022/06/29 02:43:49;;;;;;;;;;;27.10;53.00;;;;;;2099871;28;865;-76
2022/06/29 02:44:50;;;;;;;;;;;27.10;53.00;;;;;;2099742;28;1149;-76
2022/06/29 02:45:51;;;;;;;;;;;27.10;53.00;;;;;;2099941;28;845;-76
2022/06/29 02:46:51;;;;;;;;;;;27.10;53.00;;;;;;2099164;28;1371;-77
2022/06/29 02:47:52;;;;;;;;;;;27.10;53.00;;;;;;2090767;28;1218;-76
2022/06/29 02:48:52;;;;;;;;;;;27.10;53.00;;;;;;2099196;28;877;-76
2022/06/29 02:49:52;;;;;;;;;;;27.10;53.00;;;;;;2099837;28;1909;-77
2022/06/29 02:50:53;;;;;;;;;;;27.10;53.00;;;;;;2098987;28;1365;-76
2022/06/29 02:51:53;;;;;;;;;;;27.10;53.00;;;;;;2099253;28;901;-77
2022/06/29 02:52:54;;;;;;;;;;;27.10;53.00;;;;;;2099320;28;868;-77
2022/06/29 02:53:54;;;;;;;;;;;27.10;53.00;;;;;;2099694;28;912;-76
2022/06/29 02:54:54;;;;;;;;;;;27.10;53.00;;;;;;2098960;28;1291;-77
2022/06/29 02:55:55;;;;;;;;;;;27.10;53.00;;;;;;2099513;28;853;-77
2022/06/29 02:56:55;;;;;;;;;;;27.10;53.00;;;;;;2099995;28;987;-77
2022/06/29 02:57:56;;;;;;;;;;;27.10;53.00;;;;;;2099854;28;984;-76
2022/06/29 02:58:56;;;;;;;;;;;27.10;53.00;;;;;;2100173;28;790;-76
2022/06/29 02:59:57;;;;;;;;;;;27.10;53.00;;;;;;2101854;28;1245;-77
2022/06/29 03:00:58;;;;;;;;;;;27.10;53.10;;;;;;2107118;28;952;-77
2022/06/29 03:01:58;;;;;;;;;;;27.10;53.00;;;;;;2099344;28;1394;-76
2022/06/29 03:02:58;;;;;;;;;;;27.10;53.00;;;;;;2099343;28;909;-76
2022/06/29 03:03:59;;;;;;;;;;;27.10;53.00;;;;;;2099074;28;1225;-76
2022/06/29 03:04:59;;;;;;;;;;;27.10;53.00;;;;;;2099262;28;1161;-76
2022/06/29 03:06:00;;;;;;;;;;;27.20;53.00;;;;;;2099247;28;1236;-76
2022/06/29 03:07:00;;;;;;;;;;;27.10;53.00;;;;;;2090873;28;1386;-76
2022/06/29 03:08:01;;;;;;;;;;;27.10;53.00;;;;;;2099207;28;874;-76
2022/06/29 03:09:01;;;;;;;;;;;27.10;53.00;;;;;;2099931;28;864;-76
2022/06/29 03:10:02;;;;;;;;;;;27.10;53.00;;;;;;2098964;28;1968;-76
2022/06/29 03:11:02;;;;;;;;;;;27.10;53.00;;;;;;2090679;28;1255;-76
2022/06/29 03:12:03;;;;;;;;;;;27.10;53.00;;;;;;2099250;28;847;-77
2022/06/29 03:13:03;;;;;;;;;;;27.10;53.00;;;;;;2098955;28;1284;-76
2022/06/29 03:14:03;;;;;;;;;;;27.10;53.00;;;;;;2090695;28;1196;-77
2022/06/29 03:15:04;;;;;;;;;;;27.10;53.00;;;;;;2099167;28;1169;-76
2022/06/29 03:16:04;;;;;;;;;;;27.10;52.90;;;;;;2099745;28;837;-76
2022/06/29 03:17:04;;;;;;;;;;;27.10;53.00;;;;;;2099097;28;1325;-76
2022/06/29 03:18:06;;;;;;;;;;;27.10;53.00;;;;;;2099112;28;832;-77
2022/06/29 03:19:07;;;;;;;;;;;27.20;53.00;;;;;;2099306;28;1159;-77
2022/06/29 03:20:07;;;;;;;;;;;27.10;53.00;;;;;;2099255;28;1071;-76
2022/06/29 03:21:07;;;;;;;;;;;27.10;52.90;;;;;;2099080;28;1213;-77
2022/06/29 03:22:08;;;;;;;;;;;27.10;52.90;;;;;;2090778;28;1164;-77
2022/06/29 03:23:08;;;;;;;;;;;27.10;52.90;;;;;;2090693;28;1256;-76
2022/06/29 03:24:08;;;;;;;;;;;27.10;52.90;;;;;;2090706;28;1262;-77
2022/06/29 03:25:09;;;;;;;;;;;27.10;52.90;;;;;;2099054;28;1122;-77
2022/06/29 03:26:09;;;;;;;;;;;27.10;52.90;;;;;;2099822;28;955;-77
2022/06/29 03:27:10;;;;;;;;;;;27.10;52.90;;;;;;2099861;28;794;-76
2022/06/29 03:28:10;;;;;;;;;;;27.10;52.90;;;;;;2099770;28;841;-76
2022/06/29 03:29:10;;;;;;;;;;;27.10;52.90;;;;;;2099789;28;868;-77
2022/06/29 03:30:11;;;;;;;;;;;27.10;52.90;;;;;;2099447;28;1898;-77
2022/06/29 03:31:11;;;;;;;;;;;27.10;52.90;;;;;;2099574;28;886;-76
2022/06/29 03:32:12;;;;;;;;;;;27.10;53.00;;;;;;2099630;28;880;-77
2022/06/29 03:33:12;;;;;;;;;;;27.10;52.90;;;;;;2098889;28;1299;-77
2022/06/29 03:34:12;;;;;;;;;;;27.10;52.90;;;;;;2099141;28;881;-76
2022/06/29 03:35:13;;;;;;;;;;;27.10;52.90;;;;;;2099590;28;1252;-76
2022/06/29 03:36:13;;;;;;;;;;;27.10;53.00;;;;;;2099692;28;1110;-76
2022/06/29 03:37:13;;;;;;;;;;;27.10;53.00;;;;;;2098979;28;1382;-77
2022/06/29 03:38:14;;;;;;;;;;;27.10;52.90;;;;;;2090600;28;1245;-77
2022/06/29 03:39:14;;;;;;;;;;;27.10;52.90;;;;;;2098883;28;1632;-76
2022/06/29 03:40:15;;;;;;;;;;;27.10;52.90;;;;;;2090816;28;1390;-77
2022/06/29 03:41:15;;;;;;;;;;;27.10;52.80;;;;;;2099119;28;861;-76
2022/06/29 03:42:15;;;;;;;;;;;27.10;52.90;;;;;;2098820;28;1365;-76
2022/06/29 03:43:16;;;;;;;;;;;27.10;52.90;;;;;;2090548;28;1144;-77
2022/06/29 03:44:16;;;;;;;;;;;27.10;52.90;;;;;;2098935;28;1169;-77
2022/06/29 03:45:17;;;;;;;;;;;27.10;52.90;;;;;;2098829;28;1375;-77
2022/06/29 03:46:17;;;;;;;;;;;27.10;52.90;;;;;;2098982;28;1324;-76
2022/06/29 03:47:18;;;;;;;;;;;27.10;52.90;;;;;;2107373;28;817;-77
2022/06/29 03:48:18;;;;;;;;;;;27.10;52.90;;;;;;2099713;28;888;-76
2022/06/29 03:49:18;;;;;;;;;;;27.10;52.90;;;;;;2099636;28;882;-77
2022/06/29 03:50:19;;;;;;;;;;;27.10;52.90;;;;;;2098758;28;1914;-77
2022/06/29 03:51:19;;;;;;;;;;;27.10;52.80;;;;;;2090525;28;1176;-77
2022/06/29 03:52:19;;;;;;;;;;;27.10;52.80;;;;;;2099088;28;1031;-76
2022/06/29 03:53:20;;;;;;;;;;;27.10;52.90;;;;;;2098851;28;1553;-76
2022/06/29 03:54:20;;;;;;;;;;;27.10;52.90;;;;;;2090509;28;1295;-76
2022/06/29 03:55:20;;;;;;;;;;;27.10;52.90;;;;;;2098890;28;988;-76
2022/06/29 03:56:21;;;;;;;;;;;27.10;52.90;;;;;;2107137;28;1191;-77
2022/06/29 03:57:21;;;;;;;;;;;27.10;52.90;;;;;;2107335;28;789;-76
2022/06/29 03:58:22;;;;;;;;;;;27.10;52.90;;;;;;2098876;28;1255;-77
2022/06/29 03:59:22;;;;;;;;;;;27.10;52.80;;;;;;2099055;28;961;-76
2022/06/29 04:00:22;;;;;;;;;;;27.10;52.90;;;;;;2099494;28;1051;-77
2022/06/29 04:01:23;;;;;;;;;;;27.10;52.90;;;;;;2099527;28;822;-77
2022/06/29 04:02:24;;;;;;;;;;;27.10;52.90;;;;;;2098690;28;1395;-76
2022/06/29 04:03:24;;;;;;;;;;;27.10;52.90;;;;;;2090678;28;1195;-77
2022/06/29 04:04:24;;;;;;;;;;;27.10;52.90;;;;;;2090483;28;1377;-77
2022/06/29 04:05:25;;;;;;;;;;;27.10;52.90;;;;;;2091285;28;1402;-76
2022/06/29 04:06:25;;;;;;;;;;;27.10;52.90;;;;;;2100375;28;837;-76
2022/06/29 04:07:25;;;;;;;;;;;27.10;52.90;;;;;;2101065;28;979;-76
2022/06/29 04:08:26;;;;;;;;;;;27.10;52.90;;;;;;2101052;28;850;-76
2022/06/29 04:09:26;;;;;;;;;;;27.10;52.90;;;;;;2100981;28;1898;-76
2022/06/29 04:10:27;;;;;;;;;;;27.10;52.90;;;;;;2101640;28;1291;-77
2022/06/29 04:12:46;;;;;;;;;;;27.10;52.90;;;;;;2101166;28;691;-76
2022/06/29 04:13:46;;;;;;;;;;;27.10;52.90;;;;;;2100848;28;1032;-76
2022/06/29 04:14:47;;;;;;;;;;;27.10;52.90;;;;;;2100067;28;1293;-76
2022/06/29 04:15:47;;;;;;;;;;;27.10;52.90;;;;;;2092223;28;1426;-76
2022/06/29 04:16:47;;;;;;;;;;;27.10;52.90;;;;;;2100345;28;896;-76
2022/06/29 04:17:48;;;;;;;;;;;27.10;52.90;;;;;;2101067;28;857;-76
2022/06/29 04:18:48;;;;;;;;;;;27.10;52.90;;;;;;2101069;28;909;-77
2022/06/29 04:19:51;;;;;;;;;;;27.10;52.90;;;;;;2100876;28;1024;-76
2022/06/29 04:21:12;;;;;;;;;;;27.10;52.90;;;;;;2100858;28;905;-76
2022/06/29 04:22:12;;;;;;;;;;;27.10;52.90;;;;;;2100614;28;1028;-76
2022/06/29 04:23:12;;;;;;;;;;;27.10;52.90;;;;;;2100881;28;987;-76
2022/06/29 04:24:12;;;;;;;;;;;27.10;52.90;;;;;;2100418;28;1213;-76
2022/06/29 04:25:13;;;;;;;;;;;27.10;52.90;;;;;;2091984;28;1288;-76
2022/06/29 04:26:13;;;;;;;;;;;27.10;52.90;;;;;;2100166;28;1221;-76
2022/06/29 04:27:14;;;;;;;;;;;27.10;52.90;;;;;;2091924;28;1245;-77
2022/06/29 04:28:14;;;;;;;;;;;27.10;52.90;;;;;;2100152;28;1344;-76
2022/06/29 04:29:14;;;;;;;;;;;27.10;52.90;;;;;;2091845;28;1301;-76
2022/06/29 04:30:15;;;;;;;;;;;27.10;52.90;;;;;;2099981;28;1890;-76
2022/06/29 04:31:15;;;;;;;;;;;27.10;52.90;;;;;;2100121;28;1234;-76
2022/06/29 04:32:15;;;;;;;;;;;27.10;52.90;;;;;;2091987;28;1431;-76
2022/06/29 04:33:16;;;;;;;;;;;27.10;52.90;;;;;;2100145;28;1274;-76
2022/06/29 04:34:16;;;;;;;;;;;27.10;52.90;;;;;;2100289;28;1246;-76
2022/06/29 04:35:16;;;;;;;;;;;27.00;52.90;;;;;;2101046;28;874;-76
2022/06/29 04:36:17;;;;;;;;;;;27.10;52.90;;;;;;2100163;28;1313;-76
2022/06/29 04:37:17;;;;;;;;;;;27.10;52.90;;;;;;2100248;28;856;-76
2022/06/29 04:38:17;;;;;;;;;;;27.10;52.90;;;;;;2100793;28;923;-76
2022/06/29 04:39:18;;;;;;;;;;;27.10;52.90;;;;;;2100660;28;1027;-77
2022/06/29 04:40:18;;;;;;;;;;;27.10;52.90;;;;;;2100842;28;825;-77
2022/06/29 04:41:19;;;;;;;;;;;27.10;52.90;;;;;;2100091;28;1265;-77
2022/06/29 04:42:19;;;;;;;;;;;27.10;52.90;;;;;;2100143;28;894;-76
2022/06/29 04:43:20;;;;;;;;;;;27.10;52.90;;;;;;2100741;28;916;-77
2022/06/29 04:44:20;;;;;;;;;;;27.10;52.90;;;;;;2099878;28;1397;-76
2022/06/29 04:46:39;;;;;;;;;;;27.10;52.80;;;;;;2100864;28;683;-76
2022/06/29 04:47:40;;;;;;;;;;;27.10;52.90;;;;;;2100143;28;1261;-76
2022/06/29 04:48:40;;;;;;;;;;;27.10;52.90;;;;;;2091733;28;1322;-76
2022/06/29 04:49:40;;;;;;;;;;;27.10;52.90;;;;;;2099914;28;1960;-76
2022/06/29 04:50:41;;;;;;;;;;;27.10;52.90;;;;;;2100765;28;948;-76
2022/06/29 04:51:41;;;;;;;;;;;27.10;52.80;;;;;;2099946;28;1288;-77
2022/06/29 04:52:42;;;;;;;;;;;27.10;52.90;;;;;;2100052;28;935;-76
2022/06/29 04:53:43;;;;;;;;;;;27.10;52.90;;;;;;2099953;28;1264;-77
2022/06/29 04:54:44;;;;;;;;;;;27.10;52.90;;;;;;2100053;28;1173;-77
2022/06/29 04:55:44;;;;;;;;;;;27.10;52.90;;;;;;2100770;28;956;-77
2022/06/29 04:56:44;;;;;;;;;;;27.10;52.80;;;;;;2100602;28;857;-77
2022/06/29 04:57:45;;;;;;;;;;;27.10;52.80;;;;;;2100469;28;833;-77
2022/06/29 04:58:46;;;;;;;;;;;27.10;52.80;;;;;;2100719;28;921;-77
2022/06/29 04:59:46;;;;;;;;;;;27.10;52.80;;;;;;2099899;28;1248;-77
2022/06/29 05:00:47;;;;;;;;;;;27.10;52.80;;;;;;2091664;28;1358;-77
2022/06/29 05:01:48;;;;;;;;;;;27.10;52.90;;;;;;2100100;28;901;-77
2022/06/29 05:02:49;;;;;;;;;;;27.10;52.80;;;;;;2100709;28;908;-77
2022/06/29 05:03:49;;;;;;;;;;;27.10;52.90;;;;;;2100662;28;979;-77
2022/06/29 05:04:49;;;;;;;;;;;27.10;52.80;;;;;;2100414;28;1145;-76
2022/06/29 05:05:50;;;;;;;;;;;27.10;52.70;;;;;;2099921;28;1262;-76
2022/06/29 05:06:50;;;;;;;;;;;27.10;52.80;;;;;;2091735;28;1404;-77
2022/06/29 05:07:51;;;;;;;;;;;27.10;52.80;;;;;;2099968;28;1264;-77
2022/06/29 05:08:51;;;;;;;;;;;27.10;52.80;;;;;;2100025;28;975;-77
2022/06/29 05:09:51;;;;;;;;;;;27.10;52.80;;;;;;2099984;28;1897;-76
2022/06/29 05:10:52;;;;;;;;;;;27.10;52.80;;;;;;2100198;28;984;-77
2022/06/29 05:11:52;;;;;;;;;;;27.10;52.70;;;;;;2100638;28;801;-77
2022/06/29 05:12:52;;;;;;;;;;;27.10;52.70;;;;;;2105579;28;1020;-76
2022/06/29 05:13:53;;;;;;;;;;;27.10;52.70;;;;;;2105246;28;1222;-77
2022/06/29 05:14:53;;;;;;;;;;;27.10;52.80;;;;;;2100089;28;1248;-76
2022/06/29 05:15:54;;;;;;;;;;;27.10;52.80;;;;;;2099921;28;1086;-77
2022/06/29 05:16:54;;;;;;;;;;;27.10;52.80;;;;;;2099969;28;1375;-77
2022/06/29 05:17:54;;;;;;;;;;;27.10;52.80;;;;;;2099956;28;1003;-77
2022/06/29 05:18:55;;;;;;;;;;;27.10;52.80;;;;;;2099873;28;1407;-77
2022/06/29 05:19:55;;;;;;;;;;;27.10;52.80;;;;;;2091538;28;1372;-76
2022/06/29 05:20:55;;;;;;;;;;;27.10;52.80;;;;;;2099874;28;1020;-77
2022/06/29 05:21:56;;;;;;;;;;;27.10;52.80;;;;;;2099794;28;1164;-76
2022/06/29 05:22:56;;;;;;;;;;;27.10;52.70;;;;;;2099903;28;948;-77
2022/06/29 05:23:56;;;;;;;;;;;27.10;52.80;;;;;;2108111;28;1201;-77
2022/06/29 05:24:57;;;;;;;;;;;27.10;52.80;;;;;;2099807;28;1245;-76
2022/06/29 05:25:57;;;;;;;;;;;27.10;52.80;;;;;;2099960;28;856;-77
2022/06/29 05:26:57;;;;;;;;;;;27.10;52.80;;;;;;2100356;28;1007;-77
2022/06/29 05:27:58;;;;;;;;;;;27.10;52.80;;;;;;2100466;28;933;-76
2022/06/29 05:28:59;;;;;;;;;;;27.10;52.80;;;;;;2100466;28;920;-77
2022/06/29 05:29:59;;;;;;;;;;;27.10;52.80;;;;;;2100373;28;1886;-77
2022/06/29 05:30:59;;;;;;;;;;;27.10;52.80;;;;;;2100339;28;806;-77
2022/06/29 05:32:00;;;;;;;;;;;27.10;52.80;;;;;;2100493;28;988;-77
2022/06/29 05:33:00;;;;;;;;;;;27.10;52.80;;;;;;2099714;28;1242;-77
2022/06/29 05:34:01;;;;;;;;;;;27.10;52.80;;;;;;2091379;28;1302;-77
2022/06/29 05:35:01;;;;;;;;;;;27.10;52.80;;;;;;2099650;28;1196;-76
2022/06/29 05:36:02;;;;;;;;;;;27.10;52.70;;;;;;2100467;28;861;-76
2022/06/29 05:37:03;;;;;;;;;;;27.10;52.70;;;;;;2099634;28;1385;-77
2022/06/29 05:38:03;;;;;;;;;;;27.10;52.80;;;;;;2091269;28;1393;-77
2022/06/29 05:39:03;;;;;;;;;;;27.10;52.70;;;;;;2099554;28;1183;-76
2022/06/29 05:40:04;;;;;;;;;;;27.10;52.80;;;;;;2091483;28;1357;-77
2022/06/29 05:41:04;;;;;;;;;;;27.10;52.80;;;;;;2099766;28;1400;-77
2022/06/29 05:42:04;;;;;;;;;;;27.10;52.80;;;;;;2100033;28;928;-77
2022/06/29 05:43:05;;;;;;;;;;;27.10;52.80;;;;;;2100427;28;916;-77
2022/06/29 05:44:05;;;;;;;;;;;27.10;52.80;;;;;;2099939;28;1249;-77
2022/06/29 05:45:06;;;;;;;;;;;27.10;52.90;;;;;;2092680;28;1235;-77
2022/06/29 05:46:06;;;;;;;;;;;27.10;52.80;;;;;;2100999;28;1431;-77
2022/06/29 05:47:07;;;;;;;;;;;27.10;52.80;;;;;;2091603;28;1406;-76
2022/06/29 05:48:07;;;;;;;;;;;27.10;53.00;;;;;;2099686;28;849;-76
2022/06/29 05:49:08;;;;;;;;;;;27.10;52.90;;;;;;2100315;28;910;-77
2022/06/29 05:50:10;;;;;;;;;;;27.10;52.80;;;;;;2099402;28;1901;-76
2022/06/29 05:51:10;;;;;;;;;;;27.10;52.80;;;;;;2099759;28;876;-77
2022/06/29 05:52:11;;;;;;;;;;;27.10;52.90;;;;;;2099599;28;1267;-76
2022/06/29 05:53:11;;;;;;;;;;;27.10;52.90;;;;;;2099638;28;829;-75
2022/06/29 05:54:11;;;;;;;;;;;27.10;52.90;;;;;;2100257;28;1024;-76
2022/06/29 05:55:12;;;;;;;;;;;27.10;53.00;;;;;;2099631;28;1421;-76
2022/06/29 05:56:12;;;;;;;;;;;27.10;53.00;;;;;;2091225;28;1243;-75
2022/06/29 05:57:12;;;;;;;;;;;27.10;53.10;;;;;;2099726;28;925;-76
2022/06/29 05:58:18;;;;;;;;;;;27.10;53.10;;;;;;2100110;28;1091;-76
2022/06/29 05:59:19;;;;;;;;;;;27.10;53.10;;;;;;2099652;28;1257;-76
2022/06/29 06:00:19;;;;;;;;;;;27.10;53.20;;;;;;2099554;28;984;-76
2022/06/29 06:01:20;;;;;;;;;;;27.10;53.20;;;;;;2100429;28;873;-76
2022/06/29 06:02:20;;;;;;;;;;;27.10;53.10;;;;;;2099541;28;1324;-75
2022/06/29 06:03:20;;;;;;;;;;;27.00;53.10;;;;;;2099489;28;864;-76
2022/06/29 06:04:21;;;;;;;;;;;27.10;53.10;;;;;;2099425;28;1231;-75
2022/06/29 06:05:21;;;;;;;;;;;27.10;53.10;;;;;;2099494;28;882;-77
2022/06/29 06:06:21;;;;;;;;;;;27.10;53.10;;;;;;2099339;28;1217;-77